Time;durP1;ratioP1;P1;durP2;ratioP2;P2;SDS_P1;SDS_P2;PMS_P1;PMS_P2;Temp;Humidity;BMP_temperature;BMP_pressure;BME280_temperature;BME280_humidity;BME280_pressure;Samples;Min_cycle;Max_cycle;Signal;HPM_P1;HPM_P2
2021/10/24 00:00:59;;;;;;;;;20.25;15.75;;;;;8.55;62.84;101715.97;5077475;28;60812;-60
2021/10/24 00:03:24;;;;;;;;;19.75;15.00;;;;;8.53;62.72;101716.09;5078111;28;45368;-61
2021/10/24 00:05:50;;;;;;;;;21.75;17.75;;;;;8.52;62.63;101708.31;5077206;27;67807;-60
2021/10/24 00:08:15;;;;;;;;;19.75;16.50;;;;;8.47;62.68;101713.81;5077947;28;45296;-60
2021/10/24 00:10:40;;;;;;;;;19.50;15.50;;;;;8.43;62.66;101709.69;5077188;28;61423;-61
2021/10/24 00:13:06;;;;;;;;;20.75;20.00;;;;;8.42;62.56;101706.25;5077151;28;67038;-60
2021/10/24 00:15:31;;;;;;;;;20.50;18.00;;;;;8.42;62.44;101714.09;5077058;28;64021;-60
2021/10/24 00:17:57;;;;;;;;;20.00;18.00;;;;;8.41;62.89;101701.94;5077951;27;45311;-60
2021/10/24 00:20:22;;;;;;;;;18.25;18.25;;;;;8.41;62.88;101696.69;5077881;28;45209;-60
2021/10/24 00:22:48;;;;;;;;;19.75;17.75;;;;;8.43;62.90;101699.22;5076783;28;57054;-60
2021/10/24 00:25:13;;;;;;;;;20.25;17.25;;;;;8.44;62.95;101688.66;5077573;28;46574;-61
2021/10/24 00:27:38;;;;;;;;;19.25;17.00;;;;;8.45;62.88;101690.34;5075459;28;71376;-61
2021/10/24 00:30:05;;;;;;;;;23.25;17.50;;;;;8.45;62.62;101689.47;5077158;27;54372;-61
2021/10/24 00:32:30;;;;;;;;;18.00;15.50;;;;;8.43;62.46;101681.72;5076315;28;45371;-60
2021/10/24 00:34:56;;;;;;;;;18.00;16.25;;;;;8.41;62.57;101681.00;5075269;28;72316;-60
2021/10/24 00:37:21;;;;;;;;;20.50;18.50;;;;;8.39;62.59;101677.63;5075490;28;69676;-60
2021/10/24 00:39:46;;;;;;;;;15.75;15.00;;;;;8.37;62.47;101676.88;5077147;27;55427;-61
2021/10/24 00:42:12;;;;;;;;;21.75;17.50;;;;;8.37;62.77;101676.88;5077302;27;45559;-60
2021/10/24 00:44:37;;;;;;;;;20.50;16.75;;;;;8.35;62.90;101672.66;5076672;28;60678;-60
2021/10/24 00:47:05;;;;;;;;;20.25;19.00;;;;;8.32;62.98;101666.66;5076453;28;62872;-60
2021/10/24 00:49:30;;;;;;;;;19.25;16.25;;;;;8.30;63.20;101665.09;5075954;28;45402;-61
2021/10/24 00:51:56;;;;;;;;;21.75;19.25;;;;;8.29;63.25;101668.63;5077387;28;45316;-61
2021/10/24 00:54:22;;;;;;;;;26.00;21.75;;;;;8.28;63.25;101672.19;5075302;28;46821;-61
2021/10/24 00:56:49;;;;;;;;;19.75;17.75;;;;;8.24;62.89;101668.06;5077045;28;45296;-60
2021/10/24 00:59:15;;;;;;;;;24.25;16.00;;;;;8.23;63.12;101672.44;5076108;27;45295;-60
2021/10/24 01:01:40;;;;;;;;;22.75;21.00;;;;;8.19;63.03;101672.72;5077195;28;45169;-61
2021/10/24 01:04:06;;;;;;;;;21.50;16.50;;;;;8.15;62.79;101667.69;5076950;27;46061;-60
2021/10/24 01:06:32;;;;;;;;;18.50;15.00;;;;;8.15;62.98;101669.47;5076926;28;45365;-60
2021/10/24 01:08:58;;;;;;;;;21.50;17.25;;;;;8.15;63.03;101667.69;5058895;28;45444;-61
2021/10/24 01:11:24;;;;;;;;;21.25;18.00;;;;;8.15;63.31;101666.84;5074840;28;67099;-61
2021/10/24 01:13:49;;;;;;;;;19.50;17.50;;;;;8.14;63.36;101667.78;5076746;28;45405;-60
2021/10/24 01:16:15;;;;;;;;;20.75;16.50;;;;;8.14;63.24;101667.78;5074798;27;68480;-60
2021/10/24 01:18:41;;;;;;;;;20.00;19.25;;;;;8.11;63.29;101667.97;5077115;27;45318;-60
2021/10/24 01:21:07;;;;;;;;;21.00;19.25;;;;;8.10;63.22;101668.91;5058716;28;45598;-61
2021/10/24 01:23:32;;;;;;;;;20.75;17.50;;;;;8.08;63.51;101658.50;5076340;28;46292;-61
2021/10/24 01:25:58;;;;;;;;;20.00;16.75;;;;;8.07;63.31;101653.38;5074804;28;59815;-60
2021/10/24 01:28:24;;;;;;;;;19.75;19.50;;;;;8.05;63.28;101658.69;5076743;28;45381;-61
2021/10/24 01:30:51;;;;;;;;;22.25;19.00;;;;;8.03;63.20;101652.69;5076878;28;45572;-60
2021/10/24 01:33:16;;;;;;;;;22.50;17.75;;;;;8.00;63.39;101648.50;5075430;28;45420;-60
2021/10/24 01:35:52;;;;;;;;;18.00;16.25;;;;;8.02;63.31;101648.41;5075771;27;67966;-60
2021/10/24 01:38:17;;;;;;;;;18.50;18.00;;;;;8.00;63.09;101642.41;5075505;28;45371;-60
2021/10/24 01:40:42;;;;;;;;;19.75;17.75;;;;;8.00;62.84;101645.03;5076146;28;60981;-61
2021/10/24 01:43:08;;;;;;;;;20.25;18.75;;;;;7.97;62.84;101645.22;5075212;28;66892;-61
2021/10/24 01:45:33;;;;;;;;;16.75;15.00;;;;;7.96;62.63;101643.53;5075738;27;62482;-60
2021/10/24 01:47:59;;;;;;;;;17.75;15.25;;;;;7.90;62.68;101628.22;5076786;28;45329;-61
2021/10/24 01:50:24;;;;;;;;;17.25;14.50;;;;;7.88;62.58;101628.28;5075440;28;45468;-60
2021/10/24 01:52:50;;;;;;;;;15.00;13.25;;;;;7.85;62.56;101620.63;5075881;28;46455;-60
2021/10/24 01:55:15;;;;;;;;;16.00;15.25;;;;;7.84;62.67;101619.81;5075116;28;45441;-61
2021/10/24 01:57:43;;;;;;;;;14.25;13.00;;;;;7.86;62.85;101611.84;5076451;28;45393;-60
2021/10/24 02:00:09;;;;;;;;;18.50;14.50;;;;;7.85;62.68;101610.16;5058594;28;45443;-60
2021/10/24 02:02:35;;;;;;;;;19.00;14.00;;;;;7.84;62.81;101604.09;5076154;28;46709;-60
2021/10/24 02:05:00;;;;;;;;;14.50;14.50;;;;;7.84;62.76;101608.47;5075684;28;61473;-60
2021/10/24 02:07:25;;;;;;;;;15.75;13.00;;;;;7.78;62.33;101603.59;5074617;28;45291;-60
2021/10/24 02:09:51;;;;;;;;;15.50;13.50;;;;;7.75;62.62;101599.41;5074675;28;51358;-60
2021/10/24 02:12:16;;;;;;;;;15.00;12.50;;;;;7.71;62.88;101590.06;5074092;28;67641;-60
2021/10/24 02:14:42;;;;;;;;;13.75;13.00;;;;;7.70;63.13;101580.53;5075737;28;55671;-60
2021/10/24 02:17:07;;;;;;;;;17.00;15.25;;;;;7.70;63.10;101586.59;5075639;28;55248;-60
2021/10/24 02:19:32;;;;;;;;;13.25;12.00;;;;;7.73;63.24;101575.13;5075456;28;60402;-60
2021/10/24 02:21:58;;;;;;;;;17.50;13.25;;;;;7.74;63.32;101568.94;5075000;28;71839;-61
2021/10/24 02:24:23;;;;;;;;;14.00;14.00;;;;;7.73;63.06;101567.28;5075785;27;45417;-61
2021/10/24 02:26:48;;;;;;;;;14.25;13.00;;;;;7.69;63.02;101563.97;5076187;28;45536;-60
2021/10/24 02:29:14;;;;;;;;;17.75;12.75;;;;;7.67;62.76;101562.41;5076062;28;45465;-60
2021/10/24 02:31:39;;;;;;;;;13.25;12.50;;;;;7.63;62.99;101551.28;5075115;28;70813;-61
2021/10/24 02:34:05;;;;;;;;;12.50;11.50;;;;;7.60;62.36;101551.47;5075216;28;59336;-61
2021/10/24 02:36:30;;;;;;;;;17.00;12.75;;;;;7.58;62.81;101551.56;5075135;27;61408;-60
2021/10/24 02:38:55;;;;;;;;;13.00;11.00;;;;;7.59;62.68;101552.41;5075096;28;61007;-61
2021/10/24 02:41:21;;;;;;;;;17.50;14.00;;;;;7.60;62.71;101553.22;5075002;28;67481;-60
2021/10/24 02:43:46;;;;;;;;;15.50;11.75;;;;;7.60;62.72;101553.22;5075783;28;45412;-61
2021/10/24 02:46:12;;;;;;;;;13.00;12.75;;;;;7.58;62.59;101548.94;5075933;27;45374;-60
2021/10/24 02:48:37;;;;;;;;;18.50;15.00;;;;;7.57;62.66;101542.03;5075917;28;45635;-61
2021/10/24 02:51:02;;;;;;;;;13.00;12.50;;;;;7.55;62.28;101545.66;5075287;28;45191;-60
2021/10/24 02:53:28;;;;;;;;;13.75;11.00;;;;;7.53;62.41;101547.53;5074876;28;67244;-60
2021/10/24 02:55:53;;;;;;;;;10.25;10.00;;;;;7.49;62.03;101541.63;5077748;28;46469;-60
2021/10/24 02:58:19;;;;;;;;;12.75;11.25;;;;;7.48;62.16;101539.94;5079130;28;45310;-61
2021/10/24 03:00:44;;;;;;;;;11.50;11.50;;;;;7.43;61.99;101542.84;5078527;28;63271;-60
2021/10/24 03:03:10;;;;;;;;;13.50;12.25;;;;;7.40;62.08;101537.78;5078154;28;67209;-61
2021/10/24 03:05:35;;;;;;;;;12.75;12.00;;;;;7.38;61.93;101541.44;5077328;28;45268;-60
2021/10/24 03:08:01;;;;;;;;;11.75;11.25;;;;;7.34;61.97;101532.91;5078046;28;68772;-60
2021/10/24 03:10:26;;;;;;;;;14.75;12.25;;;;;7.35;62.18;101536.41;5078814;28;45423;-60
2021/10/24 03:12:52;;;;;;;;;12.00;11.50;;;;;7.33;62.04;101531.25;5077995;28;64561;-60
2021/10/24 03:15:17;;;;;;;;;15.00;13.50;;;;;7.34;62.25;101535.53;5078881;28;45329;-60
2021/10/24 03:17:42;;;;;;;;;12.75;12.75;;;;;7.34;62.29;101534.72;5077885;27;68973;-61
2021/10/24 03:20:08;;;;;;;;;13.75;10.25;;;;;7.35;62.52;101536.41;5077820;27;69824;-59
2021/10/24 03:22:34;;;;;;;;;10.25;9.50;;;;;7.33;62.59;101533.03;5076694;27;45348;-60
2021/10/24 03:24:59;;;;;;;;;10.00;10.00;;;;;7.27;62.78;101532.47;5077792;28;45403;-60
2021/10/24 03:27:24;;;;;;;;;16.25;10.25;;;;;7.26;62.67;101528.16;5078456;28;45367;-59
2021/10/24 03:29:50;;;;;;;;;11.25;10.75;;;;;7.27;62.50;101527.22;5077810;27;65561;-60
2021/10/24 03:32:15;;;;;;;;;13.75;10.50;;;;;7.26;62.79;101525.53;5077968;27;64099;-60
2021/10/24 03:34:41;;;;;;;;;13.25;12.25;;;;;7.26;62.54;101524.69;5078698;28;45318;-60
2021/10/24 03:37:06;;;;;;;;;13.00;10.00;;;;;7.25;62.81;101523.00;5077778;27;62415;-60
2021/10/24 03:39:31;;;;;;;;;13.50;12.00;;;;;7.26;62.65;101524.69;5077555;27;69555;-60
2021/10/24 03:41:57;;;;;;;;;13.25;10.00;;;;;7.23;62.51;101520.50;5077041;27;45448;-60
2021/10/24 03:44:22;;;;;;;;;10.75;10.00;;;;;7.20;62.40;101520.66;5077842;27;61111;-60
2021/10/24 03:46:48;;;;;;;;;13.25;12.00;;;;;7.19;62.40;101529.44;5078161;28;45549;-60
2021/10/24 03:49:13;;;;;;;;;13.50;10.00;;;;;7.15;62.12;101527.94;5077124;28;73505;-60
2021/10/24 03:51:38;;;;;;;;;11.50;10.50;;;;;7.09;62.21;101533.50;5077374;28;68777;-60
2021/10/24 03:54:04;;;;;;;;;12.00;10.00;;;;;7.03;62.18;101528.63;5077532;28;64196;-60
2021/10/24 03:56:29;;;;;;;;;10.50;10.00;;;;;6.97;62.30;101529.84;5077597;28;64602;-60
2021/10/24 03:58:54;;;;;;;;;11.25;9.25;;;;;6.97;62.90;101528.06;5077084;28;73042;-60
2021/10/24 04:01:20;;;;;;;;;11.75;9.75;;;;;6.98;63.22;101537.59;5077315;28;64708;-60
2021/10/24 04:03:45;;;;;;;;;12.75;11.00;;;;;7.02;63.70;101537.41;5078163;28;45816;-61
2021/10/24 04:06:11;;;;;;;;;13.00;10.00;;;;;7.04;63.30;101541.63;5077712;27;45354;-60
2021/10/24 04:08:36;;;;;;;;;9.25;8.75;;;;;7.03;63.40;101532.09;5077964;28;46366;-60
2021/10/24 04:11:02;;;;;;;;;9.00;9.00;;;;;7.03;63.29;101534.72;5077936;28;45539;-60
2021/10/24 04:13:27;;;;;;;;;11.50;8.75;;;;;7.06;63.53;101542.38;5076238;28;55277;-60
2021/10/24 04:15:53;;;;;;;;;11.50;10.00;;;;;7.07;63.39;101545.81;5077759;28;45407;-60
2021/10/24 04:18:18;;;;;;;;;11.00;9.75;;;;;7.06;63.38;101544.16;5077841;28;45382;-59
2021/10/24 04:20:43;;;;;;;;;11.00;9.75;;;;;7.05;63.10;101551.16;5077797;27;45271;-60
2021/10/24 04:23:09;;;;;;;;;12.25;10.00;;;;;7.03;62.86;101547.78;5075884;28;54546;-60
2021/10/24 04:25:34;;;;;;;;;10.00;8.75;;;;;7.01;62.88;101551.41;5076051;28;54019;-60
2021/10/24 04:27:59;;;;;;;;;12.25;11.00;;;;;6.96;62.60;101552.50;5077382;27;49008;-60
2021/10/24 04:30:25;;;;;;;;;11.75;11.00;;;;;6.92;62.52;101555.38;5076872;28;60215;-60
2021/10/24 04:32:50;;;;;;;;;14.50;11.50;;;;;6.89;62.58;101555.56;5076871;28;62329;-60
2021/10/24 04:35:17;;;;;;;;;14.25;11.25;;;;;6.85;62.51;101554.06;5077677;28;45358;-60
2021/10/24 04:37:42;;;;;;;;;10.75;10.00;;;;;6.83;62.40;101551.53;5077245;27;45305;-60
2021/10/24 04:40:08;;;;;;;;;14.00;11.50;;;;;6.83;62.61;101554.97;5077412;28;45173;-61
2021/10/24 04:42:33;;;;;;;;;10.75;10.00;;;;;6.84;63.23;101553.22;5076398;28;45301;-60
2021/10/24 04:44:59;;;;;;;;;10.50;10.50;;;;;6.83;62.61;101551.53;5077547;28;45271;-60
2021/10/24 04:47:24;;;;;;;;;13.75;9.00;;;;;6.82;62.60;101549.84;5076333;27;67278;-60
2021/10/24 04:49:49;;;;;;;;;13.50;11.00;;;;;6.83;62.87;101546.31;5076084;28;45455;-60
2021/10/24 04:52:15;;;;;;;;;11.25;9.50;;;;;6.80;63.15;101536.88;5077181;28;47927;-60
2021/10/24 04:54:41;;;;;;;;;11.25;11.00;;;;;6.81;63.14;101542.94;5077501;28;45513;-60
2021/10/24 04:57:06;;;;;;;;;13.25;10.50;;;;;6.80;63.09;101542.09;5077178;28;47434;-60
2021/10/24 04:59:32;;;;;;;;;12.00;8.50;;;;;6.79;63.56;101537.78;5076615;28;64818;-61
2021/10/24 05:01:58;;;;;;;;;9.25;8.75;;;;;6.78;63.76;101538.72;5077430;28;45362;-60
2021/10/24 05:04:23;;;;;;;;;9.00;9.00;;;;;6.77;63.76;101536.22;5077142;28;45418;-60
2021/10/24 05:06:49;;;;;;;;;11.00;9.00;;;;;6.76;63.74;101534.53;5075545;28;49775;-60
2021/10/24 05:09:15;;;;;;;;;10.50;9.00;;;;;6.75;63.36;101530.22;5077141;27;45457;-60
2021/10/24 05:11:40;;;;;;;;;10.50;9.00;;;;;6.72;63.28;101525.19;5077295;28;45400;-60
2021/10/24 05:14:07;;;;;;;;;11.00;9.00;;;;;6.68;62.87;101519.25;5076428;28;57600;-61
2021/10/24 05:16:32;;;;;;;;;8.25;7.75;;;;;6.64;62.84;101520.38;5076953;28;46324;-60
2021/10/24 05:18:58;;;;;;;;;11.00;9.00;;;;;6.60;63.10;101517.09;5075993;28;45517;-60
2021/10/24 05:21:23;;;;;;;;;13.00;8.25;;;;;6.60;63.91;101514.47;5076087;27;66902;-60
2021/10/24 05:23:48;;;;;;;;;9.00;9.00;;;;;6.61;63.79;101507.50;5076128;28;60838;-60
2021/10/24 05:26:14;;;;;;;;;10.50;9.50;;;;;6.59;63.46;101504.97;5075944;27;66437;-60
2021/10/24 05:28:39;;;;;;;;;9.25;8.25;;;;;6.56;63.17;101512.13;5076658;28;45335;-60
2021/10/24 05:31:05;;;;;;;;;10.00;8.50;;;;;6.51;63.26;101508.00;5076809;28;45366;-60
2021/10/24 05:33:31;;;;;;;;;12.00;9.00;;;;;6.49;63.37;101503.78;5076196;28;62081;-60
2021/10/24 05:35:56;;;;;;;;;10.00;9.25;;;;;6.49;63.26;101503.78;5076698;28;46101;-60
2021/10/24 05:38:21;;;;;;;;;10.25;9.00;;;;;6.49;63.17;101504.66;5075883;28;65380;-60
2021/10/24 05:40:48;;;;;;;;;9.50;8.50;;;;;6.49;62.82;101506.41;5076924;28;45426;-60
2021/10/24 05:43:14;;;;;;;;;9.00;8.25;;;;;6.47;63.15;101501.28;5076801;28;45472;-60
2021/10/24 05:45:43;;;;;;;;;11.75;10.00;;;;;6.47;62.99;101505.63;5076408;28;46121;-59
2021/10/24 05:48:08;;;;;;;;;10.50;10.00;;;;;6.46;63.09;101503.97;5076369;27;45766;-60
2021/10/24 05:50:34;;;;;;;;;14.00;10.50;;;;;6.44;62.92;101513.66;5075767;28;59922;-60
2021/10/24 05:52:59;;;;;;;;;11.25;9.75;;;;;6.42;62.67;101507.66;5076504;28;45350;-60
2021/10/24 05:55:24;;;;;;;;;10.50;9.50;;;;;6.37;62.73;101500.94;5075499;28;69280;-60
2021/10/24 05:57:50;;;;;;;;;10.00;10.00;;;;;6.38;62.94;101509.63;5076477;28;45397;-60
2021/10/24 06:00:15;;;;;;;;;9.50;7.75;;;;;6.38;63.09;101513.06;5075644;28;64300;-60
2021/10/24 06:02:41;;;;;;;;;11.00;10.50;;;;;6.38;63.08;101510.44;5076132;27;45562;-60
2021/10/24 06:05:06;;;;;;;;;10.75;9.25;;;;;6.36;62.73;101509.69;5075429;28;67603;-60
2021/10/24 06:07:33;;;;;;;;;11.25;10.00;;;;;6.35;62.95;101501.94;5076126;28;45378;-60
2021/10/24 06:10:07;;;;;;;;;14.75;11.50;;;;;6.37;63.09;101507.94;5076392;28;45321;-60
2021/10/24 06:15:19;;;;;;;;;10.00;10.00;;;;;6.31;63.80;101509.13;5076081;28;45807;-60
2021/10/24 06:17:45;;;;;;;;;11.25;10.75;;;;;6.29;63.33;101512.72;5075012;28;45335;-60
2021/10/24 06:20:10;;;;;;;;;12.00;10.00;;;;;6.28;63.17;101514.50;5076036;28;45389;-60
2021/10/24 06:22:36;;;;;;;;;10.50;9.00;;;;;6.25;62.54;101504.22;5074524;27;45388;-60
2021/10/24 06:25:01;;;;;;;;;9.75;7.75;;;;;6.23;62.31;101508.69;5075981;28;46205;-60
2021/10/24 06:27:27;;;;;;;;;11.50;10.00;;;;;6.20;62.30;101512.28;5075533;28;54948;-60
2021/10/24 06:29:52;;;;;;;;;17.00;14.75;;;;;6.18;62.98;101518.53;5077158;28;61294;-60
2021/10/24 06:32:18;;;;;;;;;15.50;15.00;;;;;6.14;63.32;101510.00;5079474;28;45482;-60
2021/10/24 06:34:43;;;;;;;;;13.25;10.75;;;;;6.13;63.76;101503.13;5078271;27;71934;-60
2021/10/24 06:37:08;;;;;;;;;10.25;9.50;;;;;6.15;64.21;101500.44;5078413;27;68621;-60
2021/10/24 06:39:34;;;;;;;;;17.00;12.50;;;;;6.16;64.70;101507.34;5079696;28;45279;-60
2021/10/24 06:41:59;;;;;;;;;11.00;11.00;;;;;6.16;64.64;101512.56;5078627;27;64598;-60
2021/10/24 06:44:24;;;;;;;;;14.50;14.00;;;;;6.13;64.61;101513.56;5078661;27;63189;-60
2021/10/24 06:46:50;;;;;;;;;10.00;10.00;;;;;6.14;64.75;101514.41;5079182;28;45251;-60
2021/10/24 06:49:15;;;;;;;;;15.50;9.50;;;;;6.14;64.82;101514.41;5078492;27;63286;-60
2021/10/24 06:51:41;;;;;;;;;12.00;11.00;;;;;6.12;64.33;101513.66;5079275;28;45542;-60
2021/10/24 06:54:06;;;;;;;;;14.50;11.75;;;;;6.13;64.37;101518.78;5078230;28;66872;-60
2021/10/24 06:56:31;;;;;;;;;15.00;15.00;;;;;6.12;64.73;101522.31;5077877;27;71992;-60
2021/10/24 06:58:57;;;;;;;;;15.75;12.25;;;;;6.12;64.59;101511.03;5077057;28;60427;-60
2021/10/24 07:01:22;;;;;;;;;15.25;12.25;;;;;6.13;64.90;101507.50;5078548;27;57021;-59
2021/10/24 07:03:48;;;;;;;;;16.25;14.75;;;;;6.12;64.36;101508.44;5077892;28;72655;-60
2021/10/24 07:06:13;;;;;;;;;17.00;14.25;;;;;6.08;64.44;101505.97;5077343;28;45395;-60
2021/10/24 07:08:38;;;;;;;;;21.75;15.75;;;;;6.07;64.68;101509.53;5078118;28;65845;-60
2021/10/24 07:11:04;;;;;;;;;24.75;17.75;;;;;6.08;64.90;101511.19;5078012;27;63137;-59
2021/10/24 07:13:29;;;;;;;;;29.50;27.25;;;;;6.13;65.14;101510.13;5078659;28;45546;-60
2021/10/24 07:15:55;;;;;;;;;24.50;23.00;;;;;6.14;65.62;101511.81;5078144;27;65671;-60
2021/10/24 07:18:20;;;;;;;;;28.75;24.00;;;;;6.18;65.59;101508.09;5078944;27;45478;-60
2021/10/24 07:20:45;;;;;;;;;28.00;22.25;;;;;6.23;65.92;101513.91;5078184;27;64433;-61
2021/10/24 07:23:11;;;;;;;;;29.50;23.25;;;;;6.28;66.08;101516.25;5077682;28;68985;-59
2021/10/24 07:25:36;;;;;;;;;23.50;22.75;;;;;6.32;66.11;101509.94;5077869;28;60087;-60
2021/10/24 07:28:01;;;;;;;;;32.00;27.50;;;;;6.35;66.36;101513.25;5077858;28;60089;-60
2021/10/24 07:30:27;;;;;;;;;27.00;26.25;;;;;6.41;66.33;101512.06;5078506;28;45386;-60
2021/10/24 07:32:52;;;;;;;;;27.00;23.50;;;;;6.45;66.43;101510.09;5076798;27;46289;-60
2021/10/24 07:35:18;;;;;;;;;24.50;24.25;;;;;6.49;66.62;101503.78;5077824;27;52964;-60
2021/10/24 07:37:43;;;;;;;;;29.75;23.25;;;;;6.53;66.64;101498.31;5077840;27;51312;-60
2021/10/24 07:40:09;;;;;;;;;33.25;23.75;;;;;6.60;66.59;101500.59;5076812;27;45692;-60
2021/10/24 07:42:35;;;;;;;;;21.75;21.00;;;;;6.65;66.60;101494.19;5076111;27;45288;-60
2021/10/24 07:45:00;;;;;;;;;24.50;23.25;;;;;6.72;66.46;101491.22;5078060;28;45262;-60
2021/10/24 07:47:29;;;;;;;;;23.50;19.00;;;;;6.76;66.30;101487.50;5077470;27;61451;-60
2021/10/24 07:49:55;;;;;;;;;19.50;16.25;;;;;6.81;66.38;101485.47;5078040;27;45454;-60
2021/10/24 07:52:20;;;;;;;;;20.50;18.25;;;;;6.87;66.35;101487.75;5077836;27;48567;-60
2021/10/24 07:54:46;;;;;;;;;20.75;19.00;;;;;6.94;66.13;101488.22;5077827;27;45311;-60
2021/10/24 07:57:11;;;;;;;;;21.50;20.75;;;;;6.96;66.44;101487.19;5077936;28;45274;-60
2021/10/24 07:59:37;;;;;;;;;24.25;18.75;;;;;7.04;66.37;101489.38;5077856;28;45300;-60
2021/10/24 08:02:02;;;;;;;;;17.50;16.25;;;;;7.12;66.25;101486.28;5077447;27;56848;-60
2021/10/24 08:04:29;;;;;;;;;18.00;15.75;;;;;7.19;66.26;101482.41;5077698;27;48264;-60
2021/10/24 08:06:54;;;;;;;;;19.00;15.25;;;;;7.27;66.21;101477.56;5076617;28;45380;-61
2021/10/24 08:09:19;;;;;;;;;19.75;14.75;;;;;7.36;66.09;101484.00;5077621;28;47230;-60
2021/10/24 08:11:46;;;;;;;;;16.00;16.00;;;;;7.46;65.85;101493.91;5076158;28;59273;-60
2021/10/24 08:14:12;;;;;;;;;16.50;16.50;;;;;7.58;65.62;101493.19;5076496;28;45256;-60
2021/10/24 08:16:37;;;;;;;;;14.25;14.25;;;;;7.70;65.52;101488.97;5076726;27;45360;-60
2021/10/24 08:19:03;;;;;;;;;18.00;13.75;;;;;7.86;65.38;101473.16;5076978;28;62772;-60
2021/10/24 08:21:28;;;;;;;;;16.00;14.25;;;;;8.07;64.91;101478.84;5077529;28;46127;-60
2021/10/24 08:23:54;;;;;;;;;12.25;12.25;;;;;8.30;64.77;101473.94;5077324;27;46247;-60
2021/10/24 08:26:19;;;;;;;;;18.25;16.25;;;;;8.56;64.32;101469.66;5076308;28;45429;-61
2021/10/24 08:28:45;;;;;;;;;18.75;16.75;;;;;8.86;63.71;101465.13;5076563;27;45581;-60
2021/10/24 08:31:12;;;;;;;;;15.50;14.50;;;;;9.14;62.85;101465.88;5075729;28;56019;-60
2021/10/24 08:33:37;;;;;;;;;17.75;15.50;;;;;9.44;62.37;101464.75;5077647;28;45274;-60
2021/10/24 08:36:03;;;;;;;;;14.00;13.75;;;;;9.71;61.59;101456.75;5077527;28;45223;-61
2021/10/24 08:38:31;;;;;;;;;19.75;16.00;;;;;10.00;61.34;101456.44;5076937;27;45424;-60
2021/10/24 08:40:57;;;;;;;;;15.75;15.25;;;;;10.29;60.50;101465.81;5077634;28;46105;-60
2021/10/24 08:43:34;;;;;;;;;17.25;16.50;;;;;10.52;60.02;101469.41;5077241;27;45437;-60
2021/10/24 08:46:00;;;;;;;;;20.75;17.50;;;;;10.75;58.91;101465.09;5077663;28;45261;-61
2021/10/24 08:48:25;;;;;;;;;17.00;15.25;;;;;10.97;58.87;101468.75;5077038;27;45256;-60
2021/10/24 08:50:51;;;;;;;;;19.50;18.50;;;;;11.19;57.89;101464.47;5077180;28;45595;-60
2021/10/24 08:53:24;;;;;;;;;16.75;15.75;;;;;11.35;57.94;101462.34;5075491;28;56901;-60
2021/10/24 08:55:49;;;;;;;;;22.00;20.00;;;;;11.53;57.58;101454.81;5076140;28;45499;-61
2021/10/24 08:58:15;;;;;;;;;19.00;18.25;;;;;11.76;57.58;101453.97;5075074;28;65515;-61
2021/10/24 09:00:40;;;;;;;;;22.50;20.00;;;;;12.02;56.58;101457.19;5076811;27;45619;-60
2021/10/24 09:03:09;;;;;;;;;18.00;15.00;;;;;12.25;55.94;101459.78;5076878;27;45327;-61
2021/10/24 09:05:48;;;;;;;;;14.50;11.50;;;;;12.43;55.72;101457.44;5077250;28;45299;-61
2021/10/24 09:08:21;;;;;;;;;17.00;16.00;;;;;12.66;55.57;101455.53;5076955;28;45310;-60
2021/10/24 09:10:48;;;;;;;;;15.25;11.00;;;;;12.94;54.39;101452.41;5077053;28;45353;-61
2021/10/24 09:13:16;;;;;;;;;12.00;12.00;;;;;13.18;54.06;101449.50;5075845;28;45280;-61
2021/10/24 09:15:48;;;;;;;;;12.00;11.00;;;;;13.40;53.32;101450.31;5075675;27;45337;-60
2021/10/24 09:18:14;;;;;;;;;12.75;10.75;;;;;13.57;53.07;101448.88;5077026;27;45920;-61
2021/10/24 09:20:40;;;;;;;;;8.75;8.00;;;;;13.75;52.20;101431.44;5075426;28;46414;-61
2021/10/24 09:23:09;;;;;;;;;12.00;11.00;;;;;13.95;51.76;101434.09;5076464;28;45312;-60
2021/10/24 09:25:55;;;;;;;;;11.75;11.75;;;;;14.15;52.24;101434.97;5076956;27;45214;-61
2021/10/24 09:28:22;;;;;;;;;12.50;11.00;;;;;14.36;50.83;101428.72;5058639;28;45603;-61
2021/10/24 09:30:50;;;;;;;;;11.50;9.00;;;;;14.52;49.69;101425.50;5076325;28;45446;-61
2021/10/24 09:33:17;;;;;;;;;5.75;5.00;;;;;14.57;49.25;101419.81;5075179;28;48918;-61
2021/10/24 09:35:45;;;;;;;;;10.75;10.00;;;;;14.61;49.19;101419.38;5076783;28;45351;-61
2021/10/24 09:38:22;;;;;;;;;10.25;10.00;;;;;14.69;49.34;101418.69;5076820;28;45219;-61
2021/10/24 09:40:50;;;;;;;;;13.50;11.75;;;;;14.79;49.26;101414.22;5075182;28;46762;-61
2021/10/24 09:43:19;;;;;;;;;14.00;11.25;;;;;14.94;48.79;101405.84;5075497;28;45400;-61
2021/10/24 09:45:53;;;;;;;;;10.00;9.50;;;;;15.07;48.03;101400.25;5076758;28;45449;-61
2021/10/24 09:48:19;;;;;;;;;12.50;10.50;;;;;15.16;47.59;101403.81;5075232;27;45194;-61
2021/10/24 09:50:52;;;;;;;;;10.50;10.50;;;;;15.24;47.82;101396.00;5076320;28;45431;-61
2021/10/24 09:53:25;;;;;;;;;10.75;9.00;;;;;15.28;47.14;101400.88;5076551;28;45903;-61
2021/10/24 09:55:53;;;;;;;;;14.00;10.00;;;;;15.30;46.83;101400.72;5076565;27;45363;-61
2021/10/24 09:58:19;;;;;;;;;12.00;10.50;;;;;15.31;47.16;101402.38;5076204;28;45207;-61
2021/10/24 10:00:46;;;;;;;;;11.25;8.75;;;;;15.33;47.18;101403.06;5074674;28;47285;-61
2021/10/24 10:03:11;;;;;;;;;9.25;9.25;;;;;15.36;46.97;101409.91;5076351;28;45828;-61
2021/10/24 10:05:37;;;;;;;;;10.75;8.50;;;;;15.43;46.73;101413.59;5078228;28;45606;-61
2021/10/24 10:08:05;;;;;;;;;10.00;10.00;;;;;15.49;46.98;101415.66;5077998;27;45446;-61
2021/10/24 10:10:31;;;;;;;;;13.50;8.75;;;;;15.56;46.26;101416.75;5078511;28;46488;-61
2021/10/24 10:13:01;;;;;;;;;12.50;11.25;;;;;15.63;46.63;101416.16;5078486;28;46021;-61
2021/10/24 10:15:34;;;;;;;;;10.75;10.25;;;;;15.77;46.67;101420.13;5078601;28;45395;-61
2021/10/24 10:18:04;;;;;;;;;11.25;10.50;;;;;15.88;46.20;101414.66;5045194;28;45526;-61
2021/10/24 10:20:29;;;;;;;;;11.50;9.50;;;;;15.97;46.09;101415.56;5079413;28;46632;-61
2021/10/24 10:23:08;;;;;;;;;9.50;9.00;;;;;16.13;46.19;101418.38;5077959;28;45354;-62
2021/10/24 10:25:35;;;;;;;;;11.50;10.50;;;;;16.21;45.62;101414.97;5079808;28;45171;-61
2021/10/24 10:28:01;;;;;;;;;10.25;10.25;;;;;16.29;45.48;101416.88;5079570;28;45499;-61
2021/10/24 10:30:40;;;;;;;;;10.25;9.75;;;;;16.39;46.01;101414.97;5079280;27;45690;-61
2021/10/24 10:33:30;;;;;;;;;13.75;10.75;;;;;16.58;45.09;101411.31;5079239;27;45332;-61
2021/10/24 10:35:56;;;;;;;;;11.50;11.50;;;;;16.73;45.03;101414.22;5066760;28;45586;-61
2021/10/24 10:38:41;;;;;;;;;12.75;10.50;;;;;16.91;44.88;101413.38;5079350;28;45368;-62
2021/10/24 10:41:07;;;;;;;;;9.75;8.75;;;;;17.09;44.39;101413.34;5079068;28;46680;-61
2021/10/24 10:43:32;;;;;;;;;10.00;9.25;;;;;17.26;44.50;101411.59;5078090;28;45356;-61
2021/10/24 10:46:02;;;;;;;;;12.00;11.00;;;;;17.44;43.03;101408.84;5079507;28;45377;-61
2021/10/24 10:48:40;;;;;;;;;11.75;11.75;;;;;17.50;42.59;101408.19;5079153;27;45555;-61
2021/10/24 10:51:23;;;;;;;;;12.75;10.75;;;;;17.46;43.09;101417.47;5079453;28;45438;-61
2021/10/24 10:54:02;;;;;;;;;10.50;8.25;;;;;17.46;43.16;101414.00;5077764;28;45482;-61
2021/10/24 10:56:31;;;;;;;;;13.50;12.50;;;;;17.56;43.28;101413.88;5078006;27;45389;-61
2021/10/24 10:58:58;;;;;;;;;9.50;9.25;;;;;17.68;42.71;101417.06;5079147;27;45373;-62
2021/10/24 11:01:35;;;;;;;;;13.25;11.75;;;;;17.80;42.46;101410.44;5078700;27;45567;-61
2021/10/24 11:04:06;;;;;;;;;12.50;11.00;;;;;17.89;42.01;101412.13;5077268;27;45268;-62
2021/10/24 11:06:37;;;;;;;;;12.25;10.25;;;;;17.97;42.28;101410.50;5079015;27;45378;-61
2021/10/24 11:09:29;;;;;;;;;13.75;11.25;;;;;18.08;41.91;101413.69;5078827;28;45431;-62
2021/10/24 11:11:55;;;;;;;;;9.00;7.75;;;;;18.12;41.21;101411.53;5062537;27;50505;-61
2021/10/24 11:14:32;;;;;;;;;11.25;10.00;;;;;18.09;41.92;101407.38;5077568;27;45391;-61
2021/10/24 11:16:58;;;;;;;;;8.50;7.50;;;;;18.16;42.15;101407.53;5077970;28;45318;-62